sensor_id;sensor_type;location;lat;lon;timestamp;temperature;humidity
39957;DHT22;48483;44.640;7.494;2024-03-23T00:56:11;12.80;99.90
39957;DHT22;48483;44.640;7.494;2024-03-23T00:58:37;12.90;99.90
39957;DHT22;48483;44.640;7.494;2024-03-23T01:01:04;12.80;99.90
39957;DHT22;48483;44.640;7.494;2024-03-23T01:03:30;12.80;99.90
39957;DHT22;48483;44.640;7.494;2024-03-23T01:05:59;12.80;99.90
39957;DHT22;48483;44.640;7.494;2024-03-23T01:08:26;12.80;99.90
39957;DHT22;48483;44.640;7.494;2024-03-23T01:10:58;12.80;99.90
39957;DHT22;48483;44.640;7.494;2024-03-23T01:13:25;12.70;99.90
39957;DHT22;48483;44.640;7.494;2024-03-23T01:15:52;12.70;99.90
39957;DHT22;48483;44.640;7.494;2024-03-23T01:18:19;12.70;99.90
39957;DHT22;48483;44.640;7.494;2024-03-23T01:20:46;12.70;99.90
39957;DHT22;48483;44.640;7.494;2024-03-23T01:23:13;12.70;99.90
39957;DHT22;48483;44.640;7.494;2024-03-23T01:25:40;12.60;99.90
39957;DHT22;48483;44.640;7.494;2024-03-23T01:28:08;12.60;99.90
39957;DHT22;48483;44.640;7.494;2024-03-23T01:30:35;12.60;99.90
39957;DHT22;48483;44.640;7.494;2024-03-23T01:33:02;12.60;99.90
39957;DHT22;48483;44.640;7.494;2024-03-23T01:35:29;12.60;99.90
39957;DHT22;48483;44.640;7.494;2024-03-23T01:37:55;12.60;99.90
39957;DHT22;48483;44.640;7.494;2024-03-23T01:40:22;12.60;99.90
39957;DHT22;48483;44.640;7.494;2024-03-23T01:42:55;12.60;99.90
39957;DHT22;48483;44.640;7.494;2024-03-23T01:45:24;12.60;99.90
39957;DHT22;48483;44.640;7.494;2024-03-23T01:47:51;12.50;99.90
39957;DHT22;48483;44.640;7.494;2024-03-23T01:50:19;12.50;99.90
39957;DHT22;48483;44.640;7.494;2024-03-23T01:52:46;12.40;99.90
39957;DHT22;48483;44.640;7.494;2024-03-23T01:55:13;12.40;99.90
39957;DHT22;48483;44.640;7.494;2024-03-23T01:57:40;12.40;99.90
39957;DHT22;48483;44.640;7.494;2024-03-23T02:00:07;12.40;99.90
39957;DHT22;48483;44.640;7.494;2024-03-23T02:02:45;12.30;99.90
39957;DHT22;48483;44.640;7.494;2024-03-23T02:05:12;12.30;99.90
39957;DHT22;48483;44.640;7.494;2024-03-23T02:07:39;12.30;99.90
39957;DHT22;48483;44.640;7.494;2024-03-23T02:10:06;12.40;99.90
39957;DHT22;48483;44.640;7.494;2024-03-23T02:12:33;12.40;99.90
39957;DHT22;48483;44.640;7.494;2024-03-23T02:15:00;12.40;99.90
39957;DHT22;48483;44.640;7.494;2024-03-23T02:17:27;12.40;99.90
39957;DHT22;48483;44.640;7.494;2024-03-23T02:19:55;12.40;99.90
39957;DHT22;48483;44.640;7.494;2024-03-23T02:22:22;12.40;99.90
39957;DHT22;48483;44.640;7.494;2024-03-23T02:24:50;12.40;99.90
39957;DHT22;48483;44.640;7.494;2024-03-23T02:27:17;12.40;99.90
39957;DHT22;48483;44.640;7.494;2024-03-23T02:29:43;12.40;99.90
39957;DHT22;48483;44.640;7.494;2024-03-23T02:32:10;12.40;99.90
39957;DHT22;48483;44.640;7.494;2024-03-23T02:34:36;12.30;99.90
39957;DHT22;48483;44.640;7.494;2024-03-23T02:37:10;12.40;99.90
39957;DHT22;48483;44.640;7.494;2024-03-23T02:39:37;12.30;99.90
39957;DHT22;48483;44.640;7.494;2024-03-23T02:42:05;12.30;99.90
39957;DHT22;48483;44.640;7.494;2024-03-23T02:44:32;12.30;99.90
39957;DHT22;48483;44.640;7.494;2024-03-23T02:46:59;12.30;99.90
39957;DHT22;48483;44.640;7.494;2024-03-23T02:49:26;12.20;99.90
39957;DHT22;48483;44.640;7.494;2024-03-23T02:51:53;12.20;99.90
39957;DHT22;48483;44.640;7.494;2024-03-23T02:54:19;12.10;99.90
39957;DHT22;48483;44.640;7.494;2024-03-23T02:56:46;12.10;99.90
39957;DHT22;48483;44.640;7.494;2024-03-23T02:59:14;12.00;99.90
39957;DHT22;48483;44.640;7.494;2024-03-23T03:01:41;12.00;99.90
39957;DHT22;48483;44.640;7.494;2024-03-23T03:04:08;12.00;99.90
39957;DHT22;48483;44.640;7.494;2024-03-23T03:06:34;12.00;99.90
39957;DHT22;48483;44.640;7.494;2024-03-23T03:09:01;12.00;99.90
39957;DHT22;48483;44.640;7.494;2024-03-23T03:11:28;12.00;99.90
39957;DHT22;48483;44.640;7.494;2024-03-23T03:13:55;12.00;99.90
39957;DHT22;48483;44.640;7.494;2024-03-23T03:16:23;11.90;99.90
39957;DHT22;48483;44.640;7.494;2024-03-23T03:18:49;11.90;99.90
39957;DHT22;48483;44.640;7.494;2024-03-23T03:21:16;11.90;99.90
39957;DHT22;48483;44.640;7.494;2024-03-23T03:23:42;12.00;99.90
39957;DHT22;48483;44.640;7.494;2024-03-23T03:26:10;12.00;99.90
39957;DHT22;48483;44.640;7.494;2024-03-23T03:28:37;11.90;99.90
39957;DHT22;48483;44.640;7.494;2024-03-23T03:31:04;11.80;99.90
39957;DHT22;48483;44.640;7.494;2024-03-23T03:33:31;11.80;99.90
39957;DHT22;48483;44.640;7.494;2024-03-23T03:35:58;11.80;99.90
39957;DHT22;48483;44.640;7.494;2024-03-23T03:38:25;11.70;99.90
39957;DHT22;48483;44.640;7.494;2024-03-23T03:40:52;11.70;99.90
39957;DHT22;48483;44.640;7.494;2024-03-23T03:43:19;11.70;99.90
39957;DHT22;48483;44.640;7.494;2024-03-23T03:45:51;11.70;99.90
39957;DHT22;48483;44.640;7.494;2024-03-23T03:48:18;11.70;99.90
39957;DHT22;48483;44.640;7.494;2024-03-23T03:50:46;11.70;99.90
39957;DHT22;48483;44.640;7.494;2024-03-23T03:53:13;11.70;99.90
39957;DHT22;48483;44.640;7.494;2024-03-23T03:55:40;11.70;99.90
39957;DHT22;48483;44.640;7.494;2024-03-23T03:58:06;11.60;99.90
39957;DHT22;48483;44.640;7.494;2024-03-23T04:00:33;11.60;99.90
39957;DHT22;48483;44.640;7.494;2024-03-23T04:03:00;11.60;99.90
39957;DHT22;48483;44.640;7.494;2024-03-23T04:05:26;11.70;99.90
39957;DHT22;48483;44.640;7.494;2024-03-23T04:07:54;11.70;99.90
39957;DHT22;48483;44.640;7.494;2024-03-23T04:10:21;11.60;99.90
39957;DHT22;48483;44.640;7.494;2024-03-23T04:12:48;11.50;99.90
39957;DHT22;48483;44.640;7.494;2024-03-23T04:15:14;11.60;99.90
39957;DHT22;48483;44.640;7.494;2024-03-23T04:17:41;11.60;99.90
39957;DHT22;48483;44.640;7.494;2024-03-23T04:20:10;11.60;99.90
39957;DHT22;48483;44.640;7.494;2024-03-23T04:22:37;11.50;99.90
39957;DHT22;48483;44.640;7.494;2024-03-23T04:25:06;11.50;99.90
39957;DHT22;48483;44.640;7.494;2024-03-23T04:27:33;11.50;99.90
39957;DHT22;48483;44.640;7.494;2024-03-23T04:29:59;11.60;99.90
39957;DHT22;48483;44.640;7.494;2024-03-23T04:32:27;11.50;99.90
39957;DHT22;48483;44.640;7.494;2024-03-23T04:34:54;11.60;99.90
39957;DHT22;48483;44.640;7.494;2024-03-23T04:37:21;11.50;99.90
39957;DHT22;48483;44.640;7.494;2024-03-23T04:39:48;11.50;99.90
39957;DHT22;48483;44.640;7.494;2024-03-23T04:42:16;11.50;99.90
39957;DHT22;48483;44.640;7.494;2024-03-23T04:44:43;11.50;99.90
39957;DHT22;48483;44.640;7.494;2024-03-23T04:47:11;11.50;99.90
39957;DHT22;48483;44.640;7.494;2024-03-23T04:49:39;11.50;99.90
39957;DHT22;48483;44.640;7.494;2024-03-23T04:52:06;11.50;99.90
39957;DHT22;48483;44.640;7.494;2024-03-23T04:54:32;11.50;99.90
39957;DHT22;48483;44.640;7.494;2024-03-23T04:57:00;11.60;99.90
39957;DHT22;48483;44.640;7.494;2024-03-23T04:59:28;11.60;99.90
39957;DHT22;48483;44.640;7.494;2024-03-23T05:01:54;11.60;99.90
39957;DHT22;48483;44.640;7.494;2024-03-23T05:04:21;11.60;99.90
39957;DHT22;48483;44.640;7.494;2024-03-23T05:06:48;11.60;99.90
39957;DHT22;48483;44.640;7.494;2024-03-23T05:09:14;11.60;99.90
39957;DHT22;48483;44.640;7.494;2024-03-23T05:11:41;11.70;99.90
39957;DHT22;48483;44.640;7.494;2024-03-23T05:14:12;11.70;99.90
39957;DHT22;48483;44.640;7.494;2024-03-23T05:16:40;11.70;99.90
39957;DHT22;48483;44.640;7.494;2024-03-23T05:19:07;11.70;99.90
39957;DHT22;48483;44.640;7.494;2024-03-23T05:21:34;11.70;99.90
39957;DHT22;48483;44.640;7.494;2024-03-23T05:24:01;11.70;99.90
39957;DHT22;48483;44.640;7.494;2024-03-23T05:26:27;11.70;99.90
39957;DHT22;48483;44.640;7.494;2024-03-23T05:28:54;11.70;99.90
39957;DHT22;48483;44.640;7.494;2024-03-23T05:31:24;11.70;99.90
39957;DHT22;48483;44.640;7.494;2024-03-23T05:33:52;11.70;99.90
39957;DHT22;48483;44.640;7.494;2024-03-23T05:36:19;11.70;99.90
39957;DHT22;48483;44.640;7.494;2024-03-23T05:38:46;11.70;99.90
39957;DHT22;48483;44.640;7.494;2024-03-23T05:41:13;11.70;99.90
39957;DHT22;48483;44.640;7.494;2024-03-23T05:43:39;11.70;99.90
39957;DHT22;48483;44.640;7.494;2024-03-23T05:46:06;11.70;99.90
39957;DHT22;48483;44.640;7.494;2024-03-23T05:48:34;11.70;99.90
39957;DHT22;48483;44.640;7.494;2024-03-23T05:51:02;11.70;99.90
39957;DHT22;48483;44.640;7.494;2024-03-23T05:53:29;11.80;99.90
39957;DHT22;48483;44.640;7.494;2024-03-23T05:56:01;11.80;99.90
39957;DHT22;48483;44.640;7.494;2024-03-23T05:58:30;11.80;99.90
39957;DHT22;48483;44.640;7.494;2024-03-23T06:00:58;11.80;99.90
39957;DHT22;48483;44.640;7.494;2024-03-23T06:03:25;11.80;99.90
39957;DHT22;48483;44.640;7.494;2024-03-23T06:05:52;11.80;99.90
39957;DHT22;48483;44.640;7.494;2024-03-23T06:08:23;11.80;99.90
39957;DHT22;48483;44.640;7.494;2024-03-23T06:10:50;11.80;99.90
39957;DHT22;48483;44.640;7.494;2024-03-23T06:13:17;11.90;99.90
39957;DHT22;48483;44.640;7.494;2024-03-23T06:15:44;11.90;99.90
39957;DHT22;48483;44.640;7.494;2024-03-23T06:18:12;11.80;99.90
39957;DHT22;48483;44.640;7.494;2024-03-23T06:20:39;11.80;99.90
39957;DHT22;48483;44.640;7.494;2024-03-23T06:23:06;11.80;99.90
39957;DHT22;48483;44.640;7.494;2024-03-23T06:25:34;11.90;99.90
39957;DHT22;48483;44.640;7.494;2024-03-23T06:28:01;11.90;99.90
39957;DHT22;48483;44.640;7.494;2024-03-23T06:30:29;12.00;99.90
39957;DHT22;48483;44.640;7.494;2024-03-23T06:32:56;12.00;99.90
39957;DHT22;48483;44.640;7.494;2024-03-23T06:35:22;12.10;99.90
39957;DHT22;48483;44.640;7.494;2024-03-23T06:37:49;12.20;99.90
39957;DHT22;48483;44.640;7.494;2024-03-23T06:40:16;12.30;99.90
39957;DHT22;48483;44.640;7.494;2024-03-23T06:42:44;12.40;99.90
39957;DHT22;48483;44.640;7.494;2024-03-23T06:45:10;12.50;99.90
39957;DHT22;48483;44.640;7.494;2024-03-23T06:47:37;12.50;99.90
39957;DHT22;48483;44.640;7.494;2024-03-23T06:50:05;12.60;99.90
39957;DHT22;48483;44.640;7.494;2024-03-23T06:52:32;12.60;99.90
39957;DHT22;48483;44.640;7.494;2024-03-23T06:54:59;12.80;99.90
39957;DHT22;48483;44.640;7.494;2024-03-23T06:57:25;12.90;99.90
39957;DHT22;48483;44.640;7.494;2024-03-23T06:59:53;12.90;99.90
39957;DHT22;48483;44.640;7.494;2024-03-23T07:02:20;13.10;99.90
39957;DHT22;48483;44.640;7.494;2024-03-23T07:04:47;13.20;99.90
39957;DHT22;48483;44.640;7.494;2024-03-23T07:07:13;13.20;99.90
39957;DHT22;48483;44.640;7.494;2024-03-23T07:09:40;13.30;99.90
39957;DHT22;48483;44.640;7.494;2024-03-23T07:12:07;13.40;99.90
39957;DHT22;48483;44.640;7.494;2024-03-23T07:14:33;13.50;99.90
39957;DHT22;48483;44.640;7.494;2024-03-23T07:17:01;13.50;99.90
39957;DHT22;48483;44.640;7.494;2024-03-23T07:19:28;13.70;99.90
39957;DHT22;48483;44.640;7.494;2024-03-23T07:21:55;13.80;99.90
39957;DHT22;48483;44.640;7.494;2024-03-23T07:24:21;13.80;99.90
39957;DHT22;48483;44.640;7.494;2024-03-23T07:26:48;13.90;99.90
39957;DHT22;48483;44.640;7.494;2024-03-23T07:29:16;14.00;99.90
39957;DHT22;48483;44.640;7.494;2024-03-23T07:31:43;14.10;99.90
39957;DHT22;48483;44.640;7.494;2024-03-23T07:34:11;14.20;99.90
39957;DHT22;48483;44.640;7.494;2024-03-23T07:36:37;14.20;99.90
39957;DHT22;48483;44.640;7.494;2024-03-23T07:39:04;14.40;99.90
39957;DHT22;48483;44.640;7.494;2024-03-23T07:41:30;14.50;99.90
39957;DHT22;48483;44.640;7.494;2024-03-23T07:43:57;14.60;99.90
39957;DHT22;48483;44.640;7.494;2024-03-23T07:46:24;14.70;99.90
39957;DHT22;48483;44.640;7.494;2024-03-23T07:48:51;14.80;99.90
39957;DHT22;48483;44.640;7.494;2024-03-23T07:51:21;15.00;99.90
39957;DHT22;48483;44.640;7.494;2024-03-23T07:53:48;15.10;99.90
39957;DHT22;48483;44.640;7.494;2024-03-23T07:56:15;15.20;99.90
39957;DHT22;48483;44.640;7.494;2024-03-23T07:58:42;15.20;99.90
39957;DHT22;48483;44.640;7.494;2024-03-23T08:01:10;15.30;99.90
39957;DHT22;48483;44.640;7.494;2024-03-23T08:03:37;15.30;99.90
39957;DHT22;48483;44.640;7.494;2024-03-23T08:06:09;15.40;99.90
39957;DHT22;48483;44.640;7.494;2024-03-23T08:08:38;15.50;99.90
39957;DHT22;48483;44.640;7.494;2024-03-23T08:11:05;15.50;99.90
39957;DHT22;48483;44.640;7.494;2024-03-23T08:13:32;15.60;99.90
39957;DHT22;48483;44.640;7.494;2024-03-23T08:15:59;15.60;99.90
39957;DHT22;48483;44.640;7.494;2024-03-23T08:18:26;15.70;99.90
39957;DHT22;48483;44.640;7.494;2024-03-23T08:20:56;15.80;99.90
39957;DHT22;48483;44.640;7.494;2024-03-23T08:23:24;15.80;99.90
39957;DHT22;48483;44.640;7.494;2024-03-23T08:25:52;15.80;99.90
39957;DHT22;48483;44.640;7.494;2024-03-23T08:28:19;15.90;99.90
39957;DHT22;48483;44.640;7.494;2024-03-23T08:30:45;15.90;99.90
39957;DHT22;48483;44.640;7.494;2024-03-23T08:33:12;15.90;99.90
39957;DHT22;48483;44.640;7.494;2024-03-23T08:35:39;15.90;99.90
39957;DHT22;48483;44.640;7.494;2024-03-23T08:38:05;15.80;99.90
39957;DHT22;48483;44.640;7.494;2024-03-23T08:40:32;15.80;99.90
39957;DHT22;48483;44.640;7.494;2024-03-23T08:43:00;15.90;99.90
39957;DHT22;48483;44.640;7.494;2024-03-23T08:45:26;15.90;99.90
39957;DHT22;48483;44.640;7.494;2024-03-23T08:47:53;16.00;99.90
39957;DHT22;48483;44.640;7.494;2024-03-23T08:50:20;16.00;99.90
39957;DHT22;48483;44.640;7.494;2024-03-23T08:52:50;16.00;99.90
39957;DHT22;48483;44.640;7.494;2024-03-23T08:55:17;16.00;99.90
39957;DHT22;48483;44.640;7.494;2024-03-23T08:57:44;16.10;99.90
39957;DHT22;48483;44.640;7.494;2024-03-23T09:00:13;16.20;99.90
39957;DHT22;48483;44.640;7.494;2024-03-23T09:02:40;16.30;99.90
39957;DHT22;48483;44.640;7.494;2024-03-23T09:05:07;16.40;99.90
39957;DHT22;48483;44.640;7.494;2024-03-23T09:07:34;16.30;99.90
39957;DHT22;48483;44.640;7.494;2024-03-23T09:10:01;16.40;99.90
39957;DHT22;48483;44.640;7.494;2024-03-23T09:12:27;16.50;99.90
39957;DHT22;48483;44.640;7.494;2024-03-23T09:14:54;16.60;99.90
39957;DHT22;48483;44.640;7.494;2024-03-23T09:17:22;16.60;99.90
39957;DHT22;48483;44.640;7.494;2024-03-23T09:19:48;16.60;99.90
39957;DHT22;48483;44.640;7.494;2024-03-23T09:22:15;16.60;99.90
39957;DHT22;48483;44.640;7.494;2024-03-23T09:24:42;16.80;99.90
39957;DHT22;48483;44.640;7.494;2024-03-23T09:27:08;16.60;99.90
39957;DHT22;48483;44.640;7.494;2024-03-23T09:29:35;16.60;99.90
39957;DHT22;48483;44.640;7.494;2024-03-23T09:32:02;16.70;99.90
39957;DHT22;48483;44.640;7.494;2024-03-23T09:34:30;16.70;99.90
39957;DHT22;48483;44.640;7.494;2024-03-23T09:36:56;16.80;99.90
39957;DHT22;48483;44.640;7.494;2024-03-23T09:39:23;17.00;99.90
39957;DHT22;48483;44.640;7.494;2024-03-23T09:41:50;16.90;99.90
39957;DHT22;48483;44.640;7.494;2024-03-23T09:44:16;17.00;99.90
39957;DHT22;48483;44.640;7.494;2024-03-23T09:46:43;17.00;99.90
39957;DHT22;48483;44.640;7.494;2024-03-23T09:49:10;17.10;99.90
39957;DHT22;48483;44.640;7.494;2024-03-23T09:51:38;17.30;99.90
39957;DHT22;48483;44.640;7.494;2024-03-23T09:54:05;17.30;99.90
39957;DHT22;48483;44.640;7.494;2024-03-23T09:56:31;17.10;99.90
39957;DHT22;48483;44.640;7.494;2024-03-23T09:59:01;17.10;99.90
39957;DHT22;48483;44.640;7.494;2024-03-23T10:01:30;17.10;99.90
39957;DHT22;48483;44.640;7.494;2024-03-23T10:03:56;17.30;99.90
39957;DHT22;48483;44.640;7.494;2024-03-23T10:06:23;17.30;99.90
39957;DHT22;48483;44.640;7.494;2024-03-23T10:08:53;17.20;99.90
39957;DHT22;48483;44.640;7.494;2024-03-23T10:11:20;17.30;99.90
39957;DHT22;48483;44.640;7.494;2024-03-23T10:13:48;17.50;99.90
39957;DHT22;48483;44.640;7.494;2024-03-23T10:16:21;17.50;99.90
39957;DHT22;48483;44.640;7.494;2024-03-23T10:18:49;17.40;99.90
39957;DHT22;48483;44.640;7.494;2024-03-23T10:21:16;17.50;99.90
39957;DHT22;48483;44.640;7.494;2024-03-23T10:23:44;17.50;99.90
39957;DHT22;48483;44.640;7.494;2024-03-23T10:26:20;17.50;99.90
39957;DHT22;48483;44.640;7.494;2024-03-23T10:28:55;17.50;99.90
39957;DHT22;48483;44.640;7.494;2024-03-23T10:31:24;17.50;99.90
39957;DHT22;48483;44.640;7.494;2024-03-23T10:33:51;17.60;99.90
39957;DHT22;48483;44.640;7.494;2024-03-23T10:36:21;17.60;99.90
39957;DHT22;48483;44.640;7.494;2024-03-23T10:38:50;17.60;99.90
39957;DHT22;48483;44.640;7.494;2024-03-23T10:41:19;17.60;99.90
39957;DHT22;48483;44.640;7.494;2024-03-23T10:43:47;17.60;99.90
39957;DHT22;48483;44.640;7.494;2024-03-23T10:46:14;17.60;99.90
39957;DHT22;48483;44.640;7.494;2024-03-23T10:48:41;17.70;99.90
39957;DHT22;48483;44.640;7.494;2024-03-23T10:51:08;17.70;99.90
39957;DHT22;48483;44.640;7.494;2024-03-23T10:53:35;17.70;99.90
39957;DHT22;48483;44.640;7.494;2024-03-23T10:56:04;17.70;99.90
39957;DHT22;48483;44.640;7.494;2024-03-23T10:58:37;17.70;99.90
39957;DHT22;48483;44.640;7.494;2024-03-23T11:01:04;17.80;99.90
39957;DHT22;48483;44.640;7.494;2024-03-23T11:03:32;17.80;99.90
39957;DHT22;48483;44.640;7.494;2024-03-23T11:06:00;17.70;99.90
39957;DHT22;48483;44.640;7.494;2024-03-23T11:08:34;17.80;99.90
39957;DHT22;48483;44.640;7.494;2024-03-23T11:11:17;17.80;99.90
39957;DHT22;48483;44.640;7.494;2024-03-23T11:13:48;17.80;99.90
39957;DHT22;48483;44.640;7.494;2024-03-23T11:16:15;17.80;99.90
39957;DHT22;48483;44.640;7.494;2024-03-23T11:18:42;17.90;99.90
39957;DHT22;48483;44.640;7.494;2024-03-23T11:21:10;18.00;99.90
39957;DHT22;48483;44.640;7.494;2024-03-23T11:23:37;18.00;99.90
39957;DHT22;48483;44.640;7.494;2024-03-23T11:26:07;18.10;99.90
39957;DHT22;48483;44.640;7.494;2024-03-23T11:28:34;18.10;99.90
39957;DHT22;48483;44.640;7.494;2024-03-23T11:31:09;18.10;99.90
39957;DHT22;48483;44.640;7.494;2024-03-23T11:33:36;18.20;99.90
39957;DHT22;48483;44.640;7.494;2024-03-23T11:36:03;18.20;99.90
39957;DHT22;48483;44.640;7.494;2024-03-23T11:38:36;18.20;99.90
39957;DHT22;48483;44.640;7.494;2024-03-23T11:41:03;18.20;99.90
39957;DHT22;48483;44.640;7.494;2024-03-23T11:43:30;18.30;99.90
39957;DHT22;48483;44.640;7.494;2024-03-23T11:45:57;18.40;99.90
39957;DHT22;48483;44.640;7.494;2024-03-23T11:48:26;18.40;99.90
39957;DHT22;48483;44.640;7.494;2024-03-23T11:50:56;18.30;99.90
39957;DHT22;48483;44.640;7.494;2024-03-23T11:53:24;18.30;99.90
39957;DHT22;48483;44.640;7.494;2024-03-23T11:55:55;18.40;99.90
39957;DHT22;48483;44.640;7.494;2024-03-23T11:58:22;18.50;99.90
39957;DHT22;48483;44.640;7.494;2024-03-23T12:00:50;18.60;99.90
39957;DHT22;48483;44.640;7.494;2024-03-23T12:03:18;18.70;99.90
39957;DHT22;48483;44.640;7.494;2024-03-23T12:05:50;18.80;99.90
39957;DHT22;48483;44.640;7.494;2024-03-23T12:08:23;18.70;99.90
39957;DHT22;48483;44.640;7.494;2024-03-23T12:10:52;18.60;99.90
39957;DHT22;48483;44.640;7.494;2024-03-23T12:13:20;18.70;99.90
39957;DHT22;48483;44.640;7.494;2024-03-23T12:15:47;18.70;99.90
39957;DHT22;48483;44.640;7.494;2024-03-23T12:18:14;18.80;99.90
39957;DHT22;48483;44.640;7.494;2024-03-23T12:20:41;18.90;99.90
39957;DHT22;48483;44.640;7.494;2024-03-23T12:23:10;19.00;99.90
39957;DHT22;48483;44.640;7.494;2024-03-23T12:25:39;19.00;99.90
39957;DHT22;48483;44.640;7.494;2024-03-23T12:28:07;19.20;99.90
39957;DHT22;48483;44.640;7.494;2024-03-23T12:30:35;19.10;99.90
39957;DHT22;48483;44.640;7.494;2024-03-23T12:33:02;19.10;99.90
39957;DHT22;48483;44.640;7.494;2024-03-23T12:35:29;19.10;99.90
39957;DHT22;48483;44.640;7.494;2024-03-23T12:37:56;19.20;99.90
39957;DHT22;48483;44.640;7.494;2024-03-23T12:40:24;19.20;99.90
39957;DHT22;48483;44.640;7.494;2024-03-23T12:42:51;19.20;99.90
39957;DHT22;48483;44.640;7.494;2024-03-23T12:45:18;19.10;99.90
39957;DHT22;48483;44.640;7.494;2024-03-23T12:47:44;19.10;99.90
39957;DHT22;48483;44.640;7.494;2024-03-23T12:50:11;19.10;99.90
39957;DHT22;48483;44.640;7.494;2024-03-23T12:52:38;19.20;99.90
39957;DHT22;48483;44.640;7.494;2024-03-23T12:55:05;19.20;99.90
39957;DHT22;48483;44.640;7.494;2024-03-23T12:57:33;19.10;99.90
39957;DHT22;48483;44.640;7.494;2024-03-23T13:00:00;19.30;99.90
39957;DHT22;48483;44.640;7.494;2024-03-23T13:02:27;19.30;99.90
39957;DHT22;48483;44.640;7.494;2024-03-23T13:04:54;19.40;99.90
39957;DHT22;48483;44.640;7.494;2024-03-23T13:07:21;19.40;99.90
39957;DHT22;48483;44.640;7.494;2024-03-23T13:09:50;19.40;99.90
39957;DHT22;48483;44.640;7.494;2024-03-23T13:12:18;19.50;99.90
39957;DHT22;48483;44.640;7.494;2024-03-23T13:14:49;19.50;99.90
39957;DHT22;48483;44.640;7.494;2024-03-23T13:17:16;19.60;99.90
39957;DHT22;48483;44.640;7.494;2024-03-23T13:19:42;19.60;99.90
39957;DHT22;48483;44.640;7.494;2024-03-23T13:22:09;19.60;99.90
39957;DHT22;48483;44.640;7.494;2024-03-23T13:24:38;19.60;99.90
39957;DHT22;48483;44.640;7.494;2024-03-23T13:27:05;19.60;99.90
39957;DHT22;48483;44.640;7.494;2024-03-23T13:29:34;19.50;99.90
39957;DHT22;48483;44.640;7.494;2024-03-23T13:32:03;19.60;99.90
39957;DHT22;48483;44.640;7.494;2024-03-23T13:34:30;19.60;99.90
39957;DHT22;48483;44.640;7.494;2024-03-23T13:36:57;19.70;99.90
39957;DHT22;48483;44.640;7.494;2024-03-23T13:39:26;19.70;99.90
39957;DHT22;48483;44.640;7.494;2024-03-23T13:41:56;19.70;99.90
39957;DHT22;48483;44.640;7.494;2024-03-23T13:44:22;19.60;99.90
39957;DHT22;48483;44.640;7.494;2024-03-23T13:46:49;19.60;99.90
39957;DHT22;48483;44.640;7.494;2024-03-23T13:49:27;19.50;99.90
39957;DHT22;48483;44.640;7.494;2024-03-23T13:51:54;19.60;99.90
39957;DHT22;48483;44.640;7.494;2024-03-23T13:54:21;19.70;99.90
39957;DHT22;48483;44.640;7.494;2024-03-23T13:56:48;19.80;99.90
39957;DHT22;48483;44.640;7.494;2024-03-23T13:59:15;19.70;99.90
39957;DHT22;48483;44.640;7.494;2024-03-23T14:01:42;19.70;99.90
39957;DHT22;48483;44.640;7.494;2024-03-23T14:04:09;19.80;99.90
39957;DHT22;48483;44.640;7.494;2024-03-23T14:06:37;19.80;99.90
39957;DHT22;48483;44.640;7.494;2024-03-23T14:09:04;19.70;99.90
39957;DHT22;48483;44.640;7.494;2024-03-23T14:11:31;19.80;99.90
39957;DHT22;48483;44.640;7.494;2024-03-23T14:13:58;19.80;99.90
39957;DHT22;48483;44.640;7.494;2024-03-23T14:16:24;19.90;99.90
39957;DHT22;48483;44.640;7.494;2024-03-23T14:18:51;20.00;99.90
39957;DHT22;48483;44.640;7.494;2024-03-23T14:21:18;19.90;99.90
39957;DHT22;48483;44.640;7.494;2024-03-23T14:23:46;20.00;99.90
39957;DHT22;48483;44.640;7.494;2024-03-23T14:26:13;20.00;99.90
39957;DHT22;48483;44.640;7.494;2024-03-23T14:28:39;20.00;99.90
39957;DHT22;48483;44.640;7.494;2024-03-23T14:31:07;20.10;99.90
39957;DHT22;48483;44.640;7.494;2024-03-23T14:33:40;20.00;99.90
39957;DHT22;48483;44.640;7.494;2024-03-23T14:36:13;20.10;99.90
39957;DHT22;48483;44.640;7.494;2024-03-23T14:38:39;20.10;99.90
39957;DHT22;48483;44.640;7.494;2024-03-23T14:41:08;20.00;99.90
39957;DHT22;48483;44.640;7.494;2024-03-23T14:43:35;20.00;99.90
39957;DHT22;48483;44.640;7.494;2024-03-23T14:46:08;20.10;99.90
39957;DHT22;48483;44.640;7.494;2024-03-23T14:48:36;20.00;99.90
39957;DHT22;48483;44.640;7.494;2024-03-23T14:51:03;20.10;97.70
39957;DHT22;48483;44.640;7.494;2024-03-23T14:53:33;20.10;96.60
39957;DHT22;48483;44.640;7.494;2024-03-23T14:56:00;20.10;95.60
39957;DHT22;48483;44.640;7.494;2024-03-23T14:58:29;20.10;93.50
39957;DHT22;48483;44.640;7.494;2024-03-23T15:01:00;20.10;94.30
39957;DHT22;48483;44.640;7.494;2024-03-23T15:03:27;20.10;94.00
39957;DHT22;48483;44.640;7.494;2024-03-23T15:05:54;20.10;94.30
39957;DHT22;48483;44.640;7.494;2024-03-23T15:08:21;20.10;94.30
39957;DHT22;48483;44.640;7.494;2024-03-23T15:10:48;20.10;95.40
39957;DHT22;48483;44.640;7.494;2024-03-23T15:13:15;20.20;95.90
39957;DHT22;48483;44.640;7.494;2024-03-23T15:15:44;20.20;96.20
39957;DHT22;48483;44.640;7.494;2024-03-23T15:18:11;20.20;96.50
39957;DHT22;48483;44.640;7.494;2024-03-23T15:20:39;20.20;96.10
39957;DHT22;48483;44.640;7.494;2024-03-23T15:23:05;20.10;96.40
39957;DHT22;48483;44.640;7.494;2024-03-23T15:25:32;20.20;96.60
39957;DHT22;48483;44.640;7.494;2024-03-23T15:27:59;20.20;95.70
39957;DHT22;48483;44.640;7.494;2024-03-23T15:30:26;20.20;95.40
39957;DHT22;48483;44.640;7.494;2024-03-23T15:32:54;20.20;95.30
39957;DHT22;48483;44.640;7.494;2024-03-23T15:35:21;20.10;94.90
39957;DHT22;48483;44.640;7.494;2024-03-23T15:37:50;20.20;94.40
39957;DHT22;48483;44.640;7.494;2024-03-23T15:40:16;20.10;94.10
39957;DHT22;48483;44.640;7.494;2024-03-23T15:42:44;20.20;95.00
39957;DHT22;48483;44.640;7.494;2024-03-23T15:45:10;20.10;94.90
39957;DHT22;48483;44.640;7.494;2024-03-23T15:47:38;20.10;95.50
39957;DHT22;48483;44.640;7.494;2024-03-23T15:50:07;20.10;95.10
39957;DHT22;48483;44.640;7.494;2024-03-23T15:52:35;20.10;94.40
39957;DHT22;48483;44.640;7.494;2024-03-23T15:55:02;20.10;95.80
39957;DHT22;48483;44.640;7.494;2024-03-23T15:57:33;20.10;96.60
39957;DHT22;48483;44.640;7.494;2024-03-23T16:00:00;20.10;96.20
39957;DHT22;48483;44.640;7.494;2024-03-23T16:02:26;20.10;95.80
39957;DHT22;48483;44.640;7.494;2024-03-23T16:04:54;20.00;96.70
39957;DHT22;48483;44.640;7.494;2024-03-23T16:07:22;20.00;98.90
39957;DHT22;48483;44.640;7.494;2024-03-23T16:09:49;20.00;98.70
39957;DHT22;48483;44.640;7.494;2024-03-23T16:12:15;20.00;99.40
39957;DHT22;48483;44.640;7.494;2024-03-23T16:14:46;20.00;99.90
39957;DHT22;48483;44.640;7.494;2024-03-23T16:17:19;20.00;99.70
39957;DHT22;48483;44.640;7.494;2024-03-23T16:19:51;20.00;99.90
39957;DHT22;48483;44.640;7.494;2024-03-23T16:22:26;20.00;99.90
39957;DHT22;48483;44.640;7.494;2024-03-23T16:24:55;20.00;99.90
39957;DHT22;48483;44.640;7.494;2024-03-23T16:27:24;20.00;99.90